sensor_id;sensor_type;location;lat;lon;timestamp;P1;durP1;ratioP1;P2;durP2;ratioP2
31126;SDS011;17775;57.948;12.514;2022-07-12T00:01:05;2.15;;;0.80;;
31126;SDS011;17775;57.948;12.514;2022-07-12T00:03:32;1.52;;;0.70;;
31126;SDS011;17775;57.948;12.514;2022-07-12T00:05:59;2.22;;;0.80;;
31126;SDS011;17775;57.948;12.514;2022-07-12T00:08:26;2.97;;;0.90;;
31126;SDS011;17775;57.948;12.514;2022-07-12T00:10:52;1.80;;;0.70;;
31126;SDS011;17775;57.948;12.514;2022-07-12T00:13:19;2.08;;;0.80;;
31126;SDS011;17775;57.948;12.514;2022-07-12T00:15:45;2.28;;;0.70;;
31126;SDS011;17775;57.948;12.514;2022-07-12T00:18:12;3.35;;;0.70;;
31126;SDS011;17775;57.948;12.514;2022-07-12T00:20:38;1.92;;;0.73;;
31126;SDS011;17775;57.948;12.514;2022-07-12T00:23:05;1.73;;;0.80;;
31126;SDS011;17775;57.948;12.514;2022-07-12T00:25:31;3.05;;;1.00;;
31126;SDS011;17775;57.948;12.514;2022-07-12T00:27:58;2.53;;;0.80;;
31126;SDS011;17775;57.948;12.514;2022-07-12T00:30:24;1.63;;;0.80;;
31126;SDS011;17775;57.948;12.514;2022-07-12T00:32:50;6.32;;;0.95;;
31126;SDS011;17775;57.948;12.514;2022-07-12T00:35:17;2.70;;;1.23;;
31126;SDS011;17775;57.948;12.514;2022-07-12T00:37:44;2.85;;;0.90;;
31126;SDS011;17775;57.948;12.514;2022-07-12T00:40:11;2.67;;;0.88;;
31126;SDS011;17775;57.948;12.514;2022-07-12T00:42:37;1.83;;;1.15;;
31126;SDS011;17775;57.948;12.514;2022-07-12T00:45:08;1.95;;;0.90;;
31126;SDS011;17775;57.948;12.514;2022-07-12T00:47:36;1.33;;;0.80;;
31126;SDS011;17775;57.948;12.514;2022-07-12T00:50:04;2.03;;;0.60;;
31126;SDS011;17775;57.948;12.514;2022-07-12T00:52:31;1.60;;;0.70;;
31126;SDS011;17775;57.948;12.514;2022-07-12T00:54:57;2.60;;;0.80;;
31126;SDS011;17775;57.948;12.514;2022-07-12T00:57:24;5.15;;;0.98;;
31126;SDS011;17775;57.948;12.514;2022-07-12T00:59:50;3.85;;;0.90;;
31126;SDS011;17775;57.948;12.514;2022-07-12T01:02:17;2.55;;;0.70;;
31126;SDS011;17775;57.948;12.514;2022-07-12T01:04:44;2.50;;;0.80;;
31126;SDS011;17775;57.948;12.514;2022-07-12T01:07:12;3.25;;;0.77;;
31126;SDS011;17775;57.948;12.514;2022-07-12T01:09:39;2.72;;;0.80;;
31126;SDS011;17775;57.948;12.514;2022-07-12T01:12:05;2.53;;;1.00;;
31126;SDS011;17775;57.948;12.514;2022-07-12T01:14:32;5.88;;;1.15;;
31126;SDS011;17775;57.948;12.514;2022-07-12T01:16:59;2.97;;;1.10;;
31126;SDS011;17775;57.948;12.514;2022-07-12T01:19:26;4.47;;;0.95;;
31126;SDS011;17775;57.948;12.514;2022-07-12T01:21:53;3.67;;;0.90;;
31126;SDS011;17775;57.948;12.514;2022-07-12T01:24:19;2.53;;;1.00;;
31126;SDS011;17775;57.948;12.514;2022-07-12T01:26:46;3.38;;;1.00;;
31126;SDS011;17775;57.948;12.514;2022-07-12T01:29:13;2.30;;;0.95;;
31126;SDS011;17775;57.948;12.514;2022-07-12T01:31:40;2.58;;;0.93;;
31126;SDS011;17775;57.948;12.514;2022-07-12T01:34:07;1.73;;;0.90;;
31126;SDS011;17775;57.948;12.514;2022-07-12T01:36:34;2.10;;;0.85;;
31126;SDS011;17775;57.948;12.514;2022-07-12T01:39:01;1.92;;;1.05;;
31126;SDS011;17775;57.948;12.514;2022-07-12T01:41:27;1.67;;;0.98;;
31126;SDS011;17775;57.948;12.514;2022-07-12T01:43:54;2.17;;;0.80;;
31126;SDS011;17775;57.948;12.514;2022-07-12T01:46:22;3.08;;;0.82;;
31126;SDS011;17775;57.948;12.514;2022-07-12T01:48:48;2.30;;;0.90;;
31126;SDS011;17775;57.948;12.514;2022-07-12T01:51:17;1.25;;;0.85;;
31126;SDS011;17775;57.948;12.514;2022-07-12T01:53:43;2.25;;;0.88;;
31126;SDS011;17775;57.948;12.514;2022-07-12T01:56:09;5.38;;;1.35;;
31126;SDS011;17775;57.948;12.514;2022-07-12T01:58:36;2.17;;;0.90;;
31126;SDS011;17775;57.948;12.514;2022-07-12T02:01:05;1.73;;;0.80;;
31126;SDS011;17775;57.948;12.514;2022-07-12T02:03:34;2.17;;;0.95;;
31126;SDS011;17775;57.948;12.514;2022-07-12T02:06:03;2.72;;;0.90;;
31126;SDS011;17775;57.948;12.514;2022-07-12T02:08:30;2.53;;;0.75;;
31126;SDS011;17775;57.948;12.514;2022-07-12T02:10:56;2.55;;;1.05;;
31126;SDS011;17775;57.948;12.514;2022-07-12T02:13:22;4.00;;;0.75;;
31126;SDS011;17775;57.948;12.514;2022-07-12T02:15:49;2.95;;;0.90;;
31126;SDS011;17775;57.948;12.514;2022-07-12T02:18:16;2.47;;;1.15;;
31126;SDS011;17775;57.948;12.514;2022-07-12T02:20:42;2.95;;;1.00;;
31126;SDS011;17775;57.948;12.514;2022-07-12T02:23:09;1.50;;;0.90;;
31126;SDS011;17775;57.948;12.514;2022-07-12T02:25:37;5.32;;;1.10;;
31126;SDS011;17775;57.948;12.514;2022-07-12T02:28:03;3.55;;;1.20;;
31126;SDS011;17775;57.948;12.514;2022-07-12T02:30:30;2.17;;;1.50;;
31126;SDS011;17775;57.948;12.514;2022-07-12T02:32:56;2.75;;;0.85;;
31126;SDS011;17775;57.948;12.514;2022-07-12T02:35:23;2.15;;;1.00;;
31126;SDS011;17775;57.948;12.514;2022-07-12T02:37:51;2.65;;;1.25;;
31126;SDS011;17775;57.948;12.514;2022-07-12T02:40:17;2.50;;;0.80;;
31126;SDS011;17775;57.948;12.514;2022-07-12T02:43:02;2.38;;;1.00;;
31126;SDS011;17775;57.948;12.514;2022-07-12T02:45:28;3.95;;;0.90;;
31126;SDS011;17775;57.948;12.514;2022-07-12T02:47:55;1.92;;;1.00;;
31126;SDS011;17775;57.948;12.514;2022-07-12T02:50:24;3.55;;;1.10;;
31126;SDS011;17775;57.948;12.514;2022-07-12T02:52:51;1.75;;;0.88;;
31126;SDS011;17775;57.948;12.514;2022-07-12T02:55:18;2.72;;;0.90;;
31126;SDS011;17775;57.948;12.514;2022-07-12T02:57:44;4.32;;;1.02;;
31126;SDS011;17775;57.948;12.514;2022-07-12T03:00:11;2.30;;;0.82;;
31126;SDS011;17775;57.948;12.514;2022-07-12T03:02:37;2.70;;;0.80;;
31126;SDS011;17775;57.948;12.514;2022-07-12T03:05:04;3.63;;;0.90;;
31126;SDS011;17775;57.948;12.514;2022-07-12T03:07:33;3.80;;;1.10;;
31126;SDS011;17775;57.948;12.514;2022-07-12T03:09:59;2.17;;;0.80;;
31126;SDS011;17775;57.948;12.514;2022-07-12T03:12:26;3.38;;;0.80;;
31126;SDS011;17775;57.948;12.514;2022-07-12T03:14:53;2.20;;;0.90;;
31126;SDS011;17775;57.948;12.514;2022-07-12T03:17:20;2.45;;;0.90;;
31126;SDS011;17775;57.948;12.514;2022-07-12T03:19:47;1.20;;;0.80;;
31126;SDS011;17775;57.948;12.514;2022-07-12T03:22:13;2.13;;;0.90;;
31126;SDS011;17775;57.948;12.514;2022-07-12T03:24:39;1.30;;;0.88;;
31126;SDS011;17775;57.948;12.514;2022-07-12T03:27:06;1.80;;;0.90;;
31126;SDS011;17775;57.948;12.514;2022-07-12T03:29:32;3.13;;;1.10;;
31126;SDS011;17775;57.948;12.514;2022-07-12T03:31:59;3.53;;;1.27;;
31126;SDS011;17775;57.948;12.514;2022-07-12T03:34:26;3.63;;;1.20;;
31126;SDS011;17775;57.948;12.514;2022-07-12T03:36:52;2.25;;;0.65;;
31126;SDS011;17775;57.948;12.514;2022-07-12T03:39:18;1.70;;;0.90;;
31126;SDS011;17775;57.948;12.514;2022-07-12T03:41:45;3.80;;;1.10;;
31126;SDS011;17775;57.948;12.514;2022-07-12T03:44:11;6.03;;;1.20;;
31126;SDS011;17775;57.948;12.514;2022-07-12T03:46:38;3.20;;;1.08;;
31126;SDS011;17775;57.948;12.514;2022-07-12T03:49:04;4.05;;;0.90;;
31126;SDS011;17775;57.948;12.514;2022-07-12T03:51:31;1.80;;;0.90;;
31126;SDS011;17775;57.948;12.514;2022-07-12T03:53:57;2.78;;;0.90;;
31126;SDS011;17775;57.948;12.514;2022-07-12T03:56:25;6.47;;;1.13;;
31126;SDS011;17775;57.948;12.514;2022-07-12T03:59:14;3.05;;;1.00;;
31126;SDS011;17775;57.948;12.514;2022-07-12T04:01:41;2.67;;;0.90;;
31126;SDS011;17775;57.948;12.514;2022-07-12T04:04:07;2.30;;;0.80;;
31126;SDS011;17775;57.948;12.514;2022-07-12T04:06:33;2.30;;;1.05;;
31126;SDS011;17775;57.948;12.514;2022-07-12T04:09:00;1.60;;;0.90;;
31126;SDS011;17775;57.948;12.514;2022-07-12T04:11:26;2.90;;;0.88;;
31126;SDS011;17775;57.948;12.514;2022-07-12T04:13:53;2.15;;;0.90;;
31126;SDS011;17775;57.948;12.514;2022-07-12T04:16:19;1.63;;;0.73;;
31126;SDS011;17775;57.948;12.514;2022-07-12T04:18:46;1.55;;;0.80;;
31126;SDS011;17775;57.948;12.514;2022-07-12T04:21:13;1.63;;;0.90;;
31126;SDS011;17775;57.948;12.514;2022-07-12T04:23:39;4.78;;;1.02;;
31126;SDS011;17775;57.948;12.514;2022-07-12T04:26:06;1.83;;;0.90;;
31126;SDS011;17775;57.948;12.514;2022-07-12T04:28:32;3.17;;;1.00;;
31126;SDS011;17775;57.948;12.514;2022-07-12T04:31:00;1.60;;;0.80;;
31126;SDS011;17775;57.948;12.514;2022-07-12T04:33:27;1.45;;;0.93;;
31126;SDS011;17775;57.948;12.514;2022-07-12T04:35:53;3.97;;;1.27;;
31126;SDS011;17775;57.948;12.514;2022-07-12T04:38:20;2.35;;;1.08;;
31126;SDS011;17775;57.948;12.514;2022-07-12T04:40:46;3.05;;;1.00;;
31126;SDS011;17775;57.948;12.514;2022-07-12T04:43:13;2.42;;;1.23;;
31126;SDS011;17775;57.948;12.514;2022-07-12T04:45:39;2.15;;;1.02;;
31126;SDS011;17775;57.948;12.514;2022-07-12T04:48:10;2.78;;;1.25;;
31126;SDS011;17775;57.948;12.514;2022-07-12T04:50:37;1.92;;;0.90;;
31126;SDS011;17775;57.948;12.514;2022-07-12T04:53:04;1.50;;;0.85;;
31126;SDS011;17775;57.948;12.514;2022-07-12T04:55:30;3.63;;;1.13;;
31126;SDS011;17775;57.948;12.514;2022-07-12T04:57:56;2.30;;;1.08;;
31126;SDS011;17775;57.948;12.514;2022-07-12T05:00:23;2.55;;;1.10;;
31126;SDS011;17775;57.948;12.514;2022-07-12T05:02:49;2.95;;;1.00;;
31126;SDS011;17775;57.948;12.514;2022-07-12T05:05:16;2.08;;;0.90;;
31126;SDS011;17775;57.948;12.514;2022-07-12T05:07:43;1.45;;;1.00;;
31126;SDS011;17775;57.948;12.514;2022-07-12T05:10:12;2.08;;;1.00;;
31126;SDS011;17775;57.948;12.514;2022-07-12T05:12:39;3.05;;;1.15;;
31126;SDS011;17775;57.948;12.514;2022-07-12T05:15:05;4.63;;;1.40;;
31126;SDS011;17775;57.948;12.514;2022-07-12T05:17:33;3.25;;;1.10;;
31126;SDS011;17775;57.948;12.514;2022-07-12T05:19:59;1.33;;;0.90;;
31126;SDS011;17775;57.948;12.514;2022-07-12T05:22:26;1.80;;;1.23;;
31126;SDS011;17775;57.948;12.514;2022-07-12T05:24:52;3.65;;;1.30;;
31126;SDS011;17775;57.948;12.514;2022-07-12T05:27:19;2.80;;;0.80;;
31126;SDS011;17775;57.948;12.514;2022-07-12T05:29:45;3.65;;;1.00;;
31126;SDS011;17775;57.948;12.514;2022-07-12T05:32:11;5.35;;;0.90;;
31126;SDS011;17775;57.948;12.514;2022-07-12T05:34:38;5.30;;;1.60;;
31126;SDS011;17775;57.948;12.514;2022-07-12T05:37:04;2.08;;;1.08;;
31126;SDS011;17775;57.948;12.514;2022-07-12T05:39:31;4.90;;;1.65;;
31126;SDS011;17775;57.948;12.514;2022-07-12T05:41:57;3.78;;;1.23;;
31126;SDS011;17775;57.948;12.514;2022-07-12T05:44:24;9.93;;;2.20;;
31126;SDS011;17775;57.948;12.514;2022-07-12T05:46:50;2.47;;;1.10;;
31126;SDS011;17775;57.948;12.514;2022-07-12T05:49:20;2.95;;;1.40;;
31126;SDS011;17775;57.948;12.514;2022-07-12T05:51:46;1.95;;;1.00;;
31126;SDS011;17775;57.948;12.514;2022-07-12T05:54:31;3.95;;;1.20;;
31126;SDS011;17775;57.948;12.514;2022-07-12T05:57:00;4.53;;;1.13;;
31126;SDS011;17775;57.948;12.514;2022-07-12T05:59:27;5.88;;;1.35;;
31126;SDS011;17775;57.948;12.514;2022-07-12T06:01:55;3.08;;;1.10;;
31126;SDS011;17775;57.948;12.514;2022-07-12T06:04:21;5.97;;;1.30;;
31126;SDS011;17775;57.948;12.514;2022-07-12T06:06:48;3.83;;;1.50;;
31126;SDS011;17775;57.948;12.514;2022-07-12T06:09:14;4.70;;;1.70;;
31126;SDS011;17775;57.948;12.514;2022-07-12T06:11:40;7.10;;;2.25;;
31126;SDS011;17775;57.948;12.514;2022-07-12T06:14:07;5.38;;;2.67;;
31126;SDS011;17775;57.948;12.514;2022-07-12T06:16:34;5.70;;;2.55;;
31126;SDS011;17775;57.948;12.514;2022-07-12T06:19:00;4.85;;;2.80;;
31126;SDS011;17775;57.948;12.514;2022-07-12T06:21:27;9.27;;;3.75;;
31126;SDS011;17775;57.948;12.514;2022-07-12T06:23:53;5.38;;;3.40;;
31126;SDS011;17775;57.948;12.514;2022-07-12T06:26:20;13.77;;;4.93;;
31126;SDS011;17775;57.948;12.514;2022-07-12T06:28:46;6.55;;;3.80;;
31126;SDS011;17775;57.948;12.514;2022-07-12T06:31:13;7.20;;;3.88;;
31126;SDS011;17775;57.948;12.514;2022-07-12T06:33:42;7.93;;;4.38;;
31126;SDS011;17775;57.948;12.514;2022-07-12T06:36:08;7.75;;;4.50;;
31126;SDS011;17775;57.948;12.514;2022-07-12T06:38:35;9.95;;;5.30;;
31126;SDS011;17775;57.948;12.514;2022-07-12T06:41:10;8.32;;;4.65;;
31126;SDS011;17775;57.948;12.514;2022-07-12T06:43:43;7.90;;;4.88;;
31126;SDS011;17775;57.948;12.514;2022-07-12T06:46:09;11.27;;;4.93;;
31126;SDS011;17775;57.948;12.514;2022-07-12T06:48:35;7.30;;;3.97;;
31126;SDS011;17775;57.948;12.514;2022-07-12T06:51:02;9.00;;;4.60;;
31126;SDS011;17775;57.948;12.514;2022-07-12T06:53:28;9.02;;;3.70;;
31126;SDS011;17775;57.948;12.514;2022-07-12T06:55:55;7.80;;;4.22;;
31126;SDS011;17775;57.948;12.514;2022-07-12T06:58:23;6.63;;;4.20;;
31126;SDS011;17775;57.948;12.514;2022-07-12T07:00:53;8.25;;;4.05;;
31126;SDS011;17775;57.948;12.514;2022-07-12T07:03:20;9.02;;;4.40;;
31126;SDS011;17775;57.948;12.514;2022-07-12T07:05:46;6.28;;;3.88;;
31126;SDS011;17775;57.948;12.514;2022-07-12T07:08:13;10.45;;;4.22;;
31126;SDS011;17775;57.948;12.514;2022-07-12T07:10:39;9.00;;;3.90;;
31126;SDS011;17775;57.948;12.514;2022-07-12T07:13:07;12.98;;;4.38;;
31126;SDS011;17775;57.948;12.514;2022-07-12T07:15:33;8.77;;;3.45;;
31126;SDS011;17775;57.948;12.514;2022-07-12T07:18:02;12.80;;;3.90;;
31126;SDS011;17775;57.948;12.514;2022-07-12T07:20:28;9.82;;;3.53;;
31126;SDS011;17775;57.948;12.514;2022-07-12T07:22:55;9.88;;;3.85;;
31126;SDS011;17775;57.948;12.514;2022-07-12T07:25:21;11.38;;;3.80;;
31126;SDS011;17775;57.948;12.514;2022-07-12T07:27:48;7.13;;;3.30;;
31126;SDS011;17775;57.948;12.514;2022-07-12T07:30:14;9.88;;;3.45;;
31126;SDS011;17775;57.948;12.514;2022-07-12T07:32:59;6.95;;;3.30;;
31126;SDS011;17775;57.948;12.514;2022-07-12T07:35:26;8.02;;;2.95;;
31126;SDS011;17775;57.948;12.514;2022-07-12T07:37:53;8.13;;;3.05;;
31126;SDS011;17775;57.948;12.514;2022-07-12T07:40:19;5.72;;;2.90;;
31126;SDS011;17775;57.948;12.514;2022-07-12T07:42:46;10.07;;;3.17;;
31126;SDS011;17775;57.948;12.514;2022-07-12T07:45:15;6.88;;;2.42;;
31126;SDS011;17775;57.948;12.514;2022-07-12T07:47:44;10.15;;;3.25;;
31126;SDS011;17775;57.948;12.514;2022-07-12T07:50:31;6.53;;;2.97;;
31126;SDS011;17775;57.948;12.514;2022-07-12T07:52:58;7.13;;;2.63;;
31126;SDS011;17775;57.948;12.514;2022-07-12T07:55:24;5.70;;;2.17;;
31126;SDS011;17775;57.948;12.514;2022-07-12T07:57:51;8.40;;;2.65;;
31126;SDS011;17775;57.948;12.514;2022-07-12T08:00:18;7.38;;;2.40;;
31126;SDS011;17775;57.948;12.514;2022-07-12T08:02:45;7.18;;;2.70;;
31126;SDS011;17775;57.948;12.514;2022-07-12T08:05:11;9.02;;;2.83;;
31126;SDS011;17775;57.948;12.514;2022-07-12T08:07:38;6.25;;;2.50;;
31126;SDS011;17775;57.948;12.514;2022-07-12T08:10:21;5.90;;;2.63;;
31126;SDS011;17775;57.948;12.514;2022-07-12T08:12:47;7.80;;;2.60;;
31126;SDS011;17775;57.948;12.514;2022-07-12T08:15:13;7.15;;;2.17;;
31126;SDS011;17775;57.948;12.514;2022-07-12T08:17:40;6.57;;;2.13;;
31126;SDS011;17775;57.948;12.514;2022-07-12T08:20:19;7.00;;;3.13;;
31126;SDS011;17775;57.948;12.514;2022-07-12T08:23:06;5.25;;;2.70;;
31126;SDS011;17775;57.948;12.514;2022-07-12T08:25:32;8.68;;;2.50;;
31126;SDS011;17775;57.948;12.514;2022-07-12T08:27:59;6.97;;;2.75;;
31126;SDS011;17775;57.948;12.514;2022-07-12T08:30:26;7.05;;;2.10;;
31126;SDS011;17775;57.948;12.514;2022-07-12T08:32:52;4.20;;;2.15;;
31126;SDS011;17775;57.948;12.514;2022-07-12T08:35:21;5.03;;;2.15;;
31126;SDS011;17775;57.948;12.514;2022-07-12T08:37:48;5.65;;;1.88;;
31126;SDS011;17775;57.948;12.514;2022-07-12T08:40:15;5.70;;;2.05;;
31126;SDS011;17775;57.948;12.514;2022-07-12T08:42:41;7.82;;;2.20;;
31126;SDS011;17775;57.948;12.514;2022-07-12T08:45:09;5.85;;;2.30;;
31126;SDS011;17775;57.948;12.514;2022-07-12T08:47:35;5.60;;;2.10;;
31126;SDS011;17775;57.948;12.514;2022-07-12T08:52:40;5.53;;;2.20;;
31126;SDS011;17775;57.948;12.514;2022-07-12T08:55:21;6.00;;;1.83;;
31126;SDS011;17775;57.948;12.514;2022-07-12T08:57:49;6.05;;;1.80;;
31126;SDS011;17775;57.948;12.514;2022-07-12T09:00:16;8.13;;;1.80;;
31126;SDS011;17775;57.948;12.514;2022-07-12T09:02:47;7.60;;;2.03;;
31126;SDS011;17775;57.948;12.514;2022-07-12T09:05:14;3.80;;;1.55;;
31126;SDS011;17775;57.948;12.514;2022-07-12T09:07:41;5.70;;;1.98;;
31126;SDS011;17775;57.948;12.514;2022-07-12T09:10:08;6.30;;;1.90;;
31126;SDS011;17775;57.948;12.514;2022-07-12T09:12:35;7.03;;;1.80;;
31126;SDS011;17775;57.948;12.514;2022-07-12T09:15:21;5.88;;;1.92;;
31126;SDS011;17775;57.948;12.514;2022-07-12T09:17:56;8.77;;;1.92;;
31126;SDS011;17775;57.948;12.514;2022-07-12T09:20:24;9.75;;;2.67;;
31126;SDS011;17775;57.948;12.514;2022-07-12T09:22:51;5.88;;;2.28;;
31126;SDS011;17775;57.948;12.514;2022-07-12T09:25:19;5.63;;;1.92;;
31126;SDS011;17775;57.948;12.514;2022-07-12T09:27:58;7.60;;;1.80;;
31126;SDS011;17775;57.948;12.514;2022-07-12T09:30:27;6.05;;;2.10;;
31126;SDS011;17775;57.948;12.514;2022-07-12T09:33:01;5.07;;;1.73;;
31126;SDS011;17775;57.948;12.514;2022-07-12T09:35:59;7.07;;;2.05;;
31126;SDS011;17775;57.948;12.514;2022-07-12T09:38:50;7.38;;;1.77;;
31126;SDS011;17775;57.948;12.514;2022-07-12T09:41:17;5.63;;;2.28;;
31126;SDS011;17775;57.948;12.514;2022-07-12T09:43:44;5.70;;;1.95;;
31126;SDS011;17775;57.948;12.514;2022-07-12T09:46:10;4.68;;;2.00;;
31126;SDS011;17775;57.948;12.514;2022-07-12T09:48:37;3.95;;;1.83;;
31126;SDS011;17775;57.948;12.514;2022-07-12T09:51:03;6.70;;;2.08;;
31126;SDS011;17775;57.948;12.514;2022-07-12T09:53:37;9.60;;;1.95;;
31126;SDS011;17775;57.948;12.514;2022-07-12T09:56:04;4.43;;;1.70;;
31126;SDS011;17775;57.948;12.514;2022-07-12T09:58:34;6.88;;;1.65;;
31126;SDS011;17775;57.948;12.514;2022-07-12T10:01:02;4.45;;;1.55;;
31126;SDS011;17775;57.948;12.514;2022-07-12T10:03:29;5.80;;;1.77;;
31126;SDS011;17775;57.948;12.514;2022-07-12T10:05:59;4.15;;;1.63;;
31126;SDS011;17775;57.948;12.514;2022-07-12T10:08:26;6.78;;;1.80;;
31126;SDS011;17775;57.948;12.514;2022-07-12T10:10:52;2.35;;;1.40;;
31126;SDS011;17775;57.948;12.514;2022-07-12T10:13:19;7.28;;;2.03;;
31126;SDS011;17775;57.948;12.514;2022-07-12T10:15:46;6.00;;;1.52;;
31126;SDS011;17775;57.948;12.514;2022-07-12T10:18:17;5.38;;;1.42;;
31126;SDS011;17775;57.948;12.514;2022-07-12T10:20:44;4.20;;;1.50;;
31126;SDS011;17775;57.948;12.514;2022-07-12T10:23:31;5.80;;;2.25;;
31126;SDS011;17775;57.948;12.514;2022-07-12T10:26:00;4.20;;;1.50;;
31126;SDS011;17775;57.948;12.514;2022-07-12T10:31:13;8.38;;;1.52;;
31126;SDS011;17775;57.948;12.514;2022-07-12T10:33:41;4.40;;;1.50;;
31126;SDS011;17775;57.948;12.514;2022-07-12T10:36:08;4.75;;;1.58;;
31126;SDS011;17775;57.948;12.514;2022-07-12T10:38:40;5.20;;;1.60;;
31126;SDS011;17775;57.948;12.514;2022-07-12T10:41:20;4.57;;;1.27;;
31126;SDS011;17775;57.948;12.514;2022-07-12T10:44:03;6.03;;;1.50;;
31126;SDS011;17775;57.948;12.514;2022-07-12T10:46:30;5.40;;;1.70;;
31126;SDS011;17775;57.948;12.514;2022-07-12T10:51:43;4.43;;;1.70;;
31126;SDS011;17775;57.948;12.514;2022-07-12T10:54:29;5.40;;;1.70;;
31126;SDS011;17775;57.948;12.514;2022-07-12T10:56:55;5.70;;;2.42;;
31126;SDS011;17775;57.948;12.514;2022-07-12T10:59:22;5.60;;;1.70;;
31126;SDS011;17775;57.948;12.514;2022-07-12T11:01:49;5.20;;;1.60;;
31126;SDS011;17775;57.948;12.514;2022-07-12T11:04:18;6.80;;;1.58;;
31126;SDS011;17775;57.948;12.514;2022-07-12T11:06:45;2.70;;;1.25;;
31126;SDS011;17775;57.948;12.514;2022-07-12T11:09:12;7.10;;;1.60;;
31126;SDS011;17775;57.948;12.514;2022-07-12T11:11:45;4.05;;;1.42;;
31126;SDS011;17775;57.948;12.514;2022-07-12T11:14:13;4.03;;;1.75;;
31126;SDS011;17775;57.948;12.514;2022-07-12T11:16:46;3.58;;;1.50;;
31126;SDS011;17775;57.948;12.514;2022-07-12T11:19:13;4.65;;;1.85;;
31126;SDS011;17775;57.948;12.514;2022-07-12T11:21:46;4.05;;;1.70;;
31126;SDS011;17775;57.948;12.514;2022-07-12T11:24:16;4.65;;;1.83;;
31126;SDS011;17775;57.948;12.514;2022-07-12T11:26:43;4.00;;;1.92;;
31126;SDS011;17775;57.948;12.514;2022-07-12T11:29:11;5.63;;;1.60;;
31126;SDS011;17775;57.948;12.514;2022-07-12T11:31:37;3.88;;;1.58;;
31126;SDS011;17775;57.948;12.514;2022-07-12T11:34:04;5.50;;;1.40;;
31126;SDS011;17775;57.948;12.514;2022-07-12T11:36:31;2.72;;;1.33;;
31126;SDS011;17775;57.948;12.514;2022-07-12T11:38:58;3.30;;;1.40;;
31126;SDS011;17775;57.948;12.514;2022-07-12T11:41:24;4.22;;;1.70;;
31126;SDS011;17775;57.948;12.514;2022-07-12T11:43:51;6.57;;;1.40;;
31126;SDS011;17775;57.948;12.514;2022-07-12T11:46:17;4.13;;;1.50;;
31126;SDS011;17775;57.948;12.514;2022-07-12T11:48:44;3.03;;;1.45;;
31126;SDS011;17775;57.948;12.514;2022-07-12T11:51:11;4.47;;;1.35;;
31126;SDS011;17775;57.948;12.514;2022-07-12T11:53:39;5.40;;;2.28;;
31126;SDS011;17775;57.948;12.514;2022-07-12T11:56:06;5.80;;;1.40;;
31126;SDS011;17775;57.948;12.514;2022-07-12T11:58:36;3.25;;;1.55;;
31126;SDS011;17775;57.948;12.514;2022-07-12T12:01:05;1.92;;;1.23;;
31126;SDS011;17775;57.948;12.514;2022-07-12T12:03:42;2.55;;;1.33;;
31126;SDS011;17775;57.948;12.514;2022-07-12T12:06:09;8.15;;;1.90;;
31126;SDS011;17775;57.948;12.514;2022-07-12T12:08:36;5.90;;;1.27;;
31126;SDS011;17775;57.948;12.514;2022-07-12T12:11:02;3.83;;;1.40;;
31126;SDS011;17775;57.948;12.514;2022-07-12T12:13:30;3.70;;;1.50;;
31126;SDS011;17775;57.948;12.514;2022-07-12T12:15:57;2.28;;;1.17;;
31126;SDS011;17775;57.948;12.514;2022-07-12T12:18:28;6.10;;;1.70;;
31126;SDS011;17775;57.948;12.514;2022-07-12T12:20:59;3.10;;;1.38;;
31126;SDS011;17775;57.948;12.514;2022-07-12T12:23:26;4.07;;;1.50;;
31126;SDS011;17775;57.948;12.514;2022-07-12T12:25:53;3.40;;;1.35;;
31126;SDS011;17775;57.948;12.514;2022-07-12T12:28:47;3.10;;;1.63;;
31126;SDS011;17775;57.948;12.514;2022-07-12T12:31:14;2.85;;;1.50;;
31126;SDS011;17775;57.948;12.514;2022-07-12T12:33:43;2.40;;;1.33;;
31126;SDS011;17775;57.948;12.514;2022-07-12T12:36:10;2.53;;;1.08;;
31126;SDS011;17775;57.948;12.514;2022-07-12T12:38:38;3.03;;;1.17;;
31126;SDS011;17775;57.948;12.514;2022-07-12T12:41:05;2.33;;;1.10;;
31126;SDS011;17775;57.948;12.514;2022-07-12T12:43:31;4.65;;;1.65;;
31126;SDS011;17775;57.948;12.514;2022-07-12T12:45:58;2.78;;;1.00;;
31126;SDS011;17775;57.948;12.514;2022-07-12T12:48:26;6.15;;;1.42;;
31126;SDS011;17775;57.948;12.514;2022-07-12T12:50:54;3.92;;;1.77;;
31126;SDS011;17775;57.948;12.514;2022-07-12T12:53:24;2.47;;;1.25;;
31126;SDS011;17775;57.948;12.514;2022-07-12T12:55:51;2.35;;;1.17;;
31126;SDS011;17775;57.948;12.514;2022-07-12T12:58:19;3.92;;;1.50;;
31126;SDS011;17775;57.948;12.514;2022-07-12T13:00:47;6.55;;;1.15;;
31126;SDS011;17775;57.948;12.514;2022-07-12T13:03:15;4.65;;;1.25;;
31126;SDS011;17775;57.948;12.514;2022-07-12T13:05:42;3.88;;;1.30;;
31126;SDS011;17775;57.948;12.514;2022-07-12T13:08:09;2.03;;;1.25;;
31126;SDS011;17775;57.948;12.514;2022-07-12T13:10:36;1.45;;;0.90;;
31126;SDS011;17775;57.948;12.514;2022-07-12T13:13:03;2.33;;;0.90;;
31126;SDS011;17775;57.948;12.514;2022-07-12T13:15:30;2.53;;;0.82;;
31126;SDS011;17775;57.948;12.514;2022-07-12T13:17:57;3.17;;;1.20;;
31126;SDS011;17775;57.948;12.514;2022-07-12T13:20:23;1.38;;;0.60;;
31126;SDS011;17775;57.948;12.514;2022-07-12T13:22:50;1.77;;;0.77;;
31126;SDS011;17775;57.948;12.514;2022-07-12T13:25:17;3.03;;;0.82;;
31126;SDS011;17775;57.948;12.514;2022-07-12T13:27:44;1.05;;;0.70;;
31126;SDS011;17775;57.948;12.514;2022-07-12T13:30:11;1.95;;;0.63;;
31126;SDS011;17775;57.948;12.514;2022-07-12T13:32:38;2.10;;;0.73;;
31126;SDS011;17775;57.948;12.514;2022-07-12T13:35:05;1.48;;;0.90;;
31126;SDS011;17775;57.948;12.514;2022-07-12T13:37:32;1.40;;;0.70;;
31126;SDS011;17775;57.948;12.514;2022-07-12T13:39:59;2.50;;;0.70;;
31126;SDS011;17775;57.948;12.514;2022-07-12T13:42:38;1.33;;;0.60;;
31126;SDS011;17775;57.948;12.514;2022-07-12T13:45:06;2.15;;;0.80;;
31126;SDS011;17775;57.948;12.514;2022-07-12T13:47:33;2.40;;;0.80;;
31126;SDS011;17775;57.948;12.514;2022-07-12T13:49:59;2.60;;;0.80;;
31126;SDS011;17775;57.948;12.514;2022-07-12T13:52:26;2.28;;;0.70;;
31126;SDS011;17775;57.948;12.514;2022-07-12T13:54:52;2.15;;;0.88;;
31126;SDS011;17775;57.948;12.514;2022-07-12T13:57:21;2.30;;;0.85;;
31126;SDS011;17775;57.948;12.514;2022-07-12T13:59:47;1.60;;;0.80;;
31126;SDS011;17775;57.948;12.514;2022-07-12T14:02:14;1.40;;;0.80;;
31126;SDS011;17775;57.948;12.514;2022-07-12T14:04:40;2.13;;;0.50;;
31126;SDS011;17775;57.948;12.514;2022-07-12T14:07:07;0.85;;;0.40;;
31126;SDS011;17775;57.948;12.514;2022-07-12T14:09:35;1.33;;;0.50;;
31126;SDS011;17775;57.948;12.514;2022-07-12T14:12:02;3.60;;;0.88;;
31126;SDS011;17775;57.948;12.514;2022-07-12T14:14:29;1.02;;;0.50;;
31126;SDS011;17775;57.948;12.514;2022-07-12T14:17:14;2.17;;;0.60;;
31126;SDS011;17775;57.948;12.514;2022-07-12T14:19:41;4.10;;;0.73;;
31126;SDS011;17775;57.948;12.514;2022-07-12T14:22:07;2.00;;;0.60;;
31126;SDS011;17775;57.948;12.514;2022-07-12T14:24:34;2.78;;;0.65;;
31126;SDS011;17775;57.948;12.514;2022-07-12T14:27:00;2.50;;;0.60;;
31126;SDS011;17775;57.948;12.514;2022-07-12T14:29:28;3.75;;;0.75;;
31126;SDS011;17775;57.948;12.514;2022-07-12T14:31:54;1.15;;;0.40;;
31126;SDS011;17775;57.948;12.514;2022-07-12T14:34:22;1.23;;;0.40;;
31126;SDS011;17775;57.948;12.514;2022-07-12T14:36:49;2.58;;;0.60;;
31126;SDS011;17775;57.948;12.514;2022-07-12T14:39:15;1.35;;;0.40;;
31126;SDS011;17775;57.948;12.514;2022-07-12T14:41:45;2.65;;;0.57;;
31126;SDS011;17775;57.948;12.514;2022-07-12T14:44:12;1.50;;;0.50;;
31126;SDS011;17775;57.948;12.514;2022-07-12T14:46:38;1.70;;;0.40;;